Time,TemperatureF,DewpointF,PressureIn,WindDirection,WindDirectionDegrees,WindSpeedMPH,WindSpeedGustMPH,Humidity,HourlyPrecipIn,Conditions,Clouds,dailyrainin,SoftwareType,DateUTC
2013-08-31 00:13:00,76.0,73.0,29.76,South,180,0.0,-999.0,89,-99.99,,,-99.99,,2013-08-31 05:13:00,
2013-08-31 00:23:00,76.0,73.0,29.77,South,180,0.0,-999.0,89,-99.99,,,-99.99,,2013-08-31 05:23:00,
2013-08-31 00:42:00,75.0,72.0,29.76,South,180,0.0,-999.0,89,-99.99,,,-99.99,,2013-08-31 05:42:00,
2013-08-31 00:53:00,75.0,72.0,29.76,South,180,0.0,-999.0,89,-99.99,,,-99.99,,2013-08-31 05:53:00,
2013-08-31 01:12:00,75.0,71.0,29.77,South,180,0.0,-999.0,88,-99.99,,,-99.99,,2013-08-31 06:12:00,
2013-08-31 01:22:00,75.0,71.0,29.78,South,177,0.0,-999.0,88,-99.99,,,-99.99,,2013-08-31 06:22:00,
2013-08-31 01:42:00,75.0,71.0,29.78,South,177,0.0,-999.0,88,-99.99,,,-99.99,,2013-08-31 06:42:00,
2013-08-31 01:52:00,75.0,71.0,29.78,South,177,0.0,-999.0,87,-99.99,,,-99.99,,2013-08-31 06:52:00,
2013-08-31 02:12:00,74.0,70.0,29.77,South,177,0.0,-999.0,87,-99.99,,,-99.99,,2013-08-31 07:12:00,
2013-08-31 02:22:00,74.0,70.0,29.77,South,177,0.0,-999.0,87,-99.99,,,-99.99,,2013-08-31 07:22:00,
2013-08-31 02:52:00,73.0,69.0,29.75,South,177,0.0,-999.0,88,-99.99,,,-99.99,,2013-08-31 07:52:00,
2013-08-31 03:12:00,73.0,70.0,29.75,South,177,0.0,-999.0,89,-99.99,,,-99.99,,2013-08-31 08:12:00,
2013-08-31 03:22:00,73.0,70.0,29.75,South,177,0.0,-999.0,89,-99.99,,,-99.99,,2013-08-31 08:22:00,
2013-08-31 03:42:00,73.0,70.0,29.75,South,177,0.0,-999.0,90,-99.99,,,-99.99,,2013-08-31 08:42:00,
2013-08-31 03:52:00,73.0,70.0,29.74,South,177,0.0,-999.0,90,-99.99,,,-99.99,,2013-08-31 08:52:00,
2013-08-31 04:12:00,73.0,70.0,29.75,South,177,0.0,-999.0,90,-99.99,,,-99.99,,2013-08-31 09:12:00,
2013-08-31 04:23:00,73.0,70.0,29.75,South,177,0.0,-999.0,91,-99.99,,,-99.99,,2013-08-31 09:23:00,
2013-08-31 04:53:00,73.0,70.0,29.76,South,177,0.0,-999.0,91,-99.99,,,-99.99,,2013-08-31 09:53:00,
2013-08-31 05:12:00,72.0,70.0,29.75,South,177,0.0,-999.0,92,-99.99,,,-99.99,,2013-08-31 10:12:00,
2013-08-31 05:23:00,73.0,71.0,29.76,South,177,0.0,-999.0,92,-99.99,,,-99.99,,2013-08-31 10:23:00,
2013-08-31 05:43:00,72.0,69.0,29.77,South,177,0.0,-999.0,91,-99.99,,,-99.99,,2013-08-31 10:43:00,
2013-08-31 05:53:00,71.0,68.0,29.77,South,177,0.0,-999.0,91,-99.99,,,-99.99,,2013-08-31 10:53:00,
2013-08-31 06:12:00,71.0,68.0,29.77,South,177,0.0,-999.0,91,-99.99,,,-99.99,,2013-08-31 11:12:00,
2013-08-31 06:22:00,71.0,68.0,29.77,South,177,0.0,-999.0,91,-99.99,,,-99.99,,2013-08-31 11:22:00,
2013-08-31 06:52:00,71.0,69.0,29.78,South,177,0.0,-999.0,92,-99.99,,,-99.99,,2013-08-31 11:52:00,
2013-08-31 07:11:00,71.0,69.0,29.78,South,177,0.0,-999.0,92,-99.99,,,-99.99,,2013-08-31 12:11:00,
2013-08-31 07:22:00,70.0,68.0,29.78,South,177,0.0,-999.0,93,-99.99,,,-99.99,,2013-08-31 12:22:00,
2013-08-31 07:42:00,70.0,68.0,29.78,South,177,0.0,-999.0,93,-99.99,,,-99.99,,2013-08-31 12:42:00,
2013-08-31 07:52:00,70.0,68.0,29.78,South,177,0.0,-999.0,93,-99.99,,,-99.99,,2013-08-31 12:52:00,
2013-08-31 08:11:00,71.0,69.0,29.78,South,177,0.0,-999.0,94,-99.99,,,-99.99,,2013-08-31 13:11:00,
2013-08-31 08:22:00,72.0,70.0,29.79,South,177,0.0,-999.0,94,-99.99,,,-99.99,,2013-08-31 13:22:00,
2013-08-31 08:42:00,73.0,71.0,29.80,South,177,0.0,-999.0,94,-99.99,,,-99.99,,2013-08-31 13:42:00,
2013-08-31 08:52:00,74.0,72.0,29.80,South,177,0.0,-999.0,94,-99.99,,,-99.99,,2013-08-31 13:52:00,
2013-08-31 09:12:00,75.0,73.0,29.81,South,177,0.0,-999.0,94,-99.99,,,-99.99,,2013-08-31 14:12:00,
2013-08-31 09:22:00,76.0,74.0,29.83,South,177,0.0,-999.0,94,-99.99,,,-99.99,,2013-08-31 14:22:00,
2013-08-31 09:52:00,77.0,74.0,29.83,SSW,206,0.0,-999.0,92,-99.99,,,-99.99,,2013-08-31 14:52:00,
2013-08-31 10:11:00,78.0,75.0,29.83,SSW,194,0.0,-999.0,92,-99.99,,,-99.99,,2013-08-31 15:11:00,
2013-08-31 10:23:00,79.0,75.0,29.82,SSW,194,0.0,-999.0,89,-99.99,,,-99.99,,2013-08-31 15:23:00,
2013-08-31 10:55:00,79.0,76.0,29.78,SSW,194,0.0,-999.0,90,-99.99,,,-99.99,,2013-08-31 15:55:00,
2013-08-31 11:14:00,79.0,75.0,29.75,SSW,194,0.0,-999.0,89,-99.99,,,-99.99,,2013-08-31 16:14:00,
2013-08-31 11:25:00,79.0,75.0,29.78,SSW,194,0.0,-999.0,89,-99.99,,,-99.99,,2013-08-31 16:25:00,
2013-08-31 11:44:00,80.0,76.0,29.80,SSW,194,0.0,-999.0,89,-99.99,,,-99.99,,2013-08-31 16:44:00,
2013-08-31 11:52:00,80.0,76.0,29.77,SSW,194,0.0,-999.0,88,-99.99,,,-99.99,,2013-08-31 16:52:00,
2013-08-31 12:13:00,81.0,77.0,29.75,SSW,194,0.0,-999.0,88,-99.99,,,-99.99,,2013-08-31 17:13:00,
2013-08-31 12:23:00,81.0,76.0,29.75,SSW,195,0.0,-999.0,86,-99.99,,,-99.99,,2013-08-31 17:23:00,
2013-08-31 12:43:00,81.0,76.0,29.77,SSW,195,0.0,-999.0,86,-99.99,,,-99.99,,2013-08-31 17:43:00,
2013-08-31 12:53:00,81.0,76.0,29.78,SSW,195,0.0,-999.0,85,-99.99,,,-99.99,,2013-08-31 17:53:00,
2013-08-31 13:12:00,81.0,76.0,29.77,SSW,195,0.0,-999.0,84,-99.99,,,-99.99,,2013-08-31 18:12:00,
2013-08-31 13:22:00,81.0,76.0,29.78,SSW,195,0.0,-999.0,86,-99.99,,,-99.99,,2013-08-31 18:22:00,
2013-08-31 13:52:00,81.0,77.0,29.78,SSW,195,0.0,-999.0,88,-99.99,,,-99.99,,2013-08-31 18:52:00,
2013-08-31 14:12:00,81.0,77.0,29.78,SSW,195,0.0,-999.0,87,-99.99,,,-99.99,,2013-08-31 19:12:00,
2013-08-31 14:22:00,82.0,77.0,29.77,SSW,195,0.0,-999.0,85,-99.99,,,-99.99,,2013-08-31 19:22:00,
2013-08-31 14:42:00,84.0,78.0,29.77,SSW,195,0.0,-999.0,81,-99.99,,,-99.99,,2013-08-31 19:42:00,
2013-08-31 14:52:00,85.0,77.0,29.78,SSW,195,0.0,-999.0,77,-99.99,,,-99.99,,2013-08-31 19:52:00,
2013-08-31 15:12:00,85.0,77.0,29.77,South,188,0.0,-999.0,76,-99.99,,,-99.99,,2013-08-31 20:12:00,
2013-08-31 15:22:00,86.0,77.0,29.77,South,188,0.0,-999.0,74,-99.99,,,-99.99,,2013-08-31 20:22:00,
2013-08-31 15:42:00,88.0,79.0,29.77,South,188,0.0,-999.0,74,-99.99,,,-99.99,,2013-08-31 20:42:00,
2013-08-31 15:53:00,89.0,77.0,29.76,SSW,194,0.0,-999.0,68,-99.99,,,-99.99,,2013-08-31 20:53:00,
2013-08-31 16:12:00,89.0,78.0,29.76,SSW,194,0.0,-999.0,70,-99.99,,,-99.99,,2013-08-31 21:12:00,
2013-08-31 16:22:00,88.0,78.0,29.76,SSW,194,0.0,-999.0,72,-99.99,,,-99.99,,2013-08-31 21:22:00,
2013-08-31 16:54:00,86.0,78.0,29.76,SSW,194,0.0,-999.0,76,-99.99,,,-99.99,,2013-08-31 21:54:00,
2013-08-31 17:13:00,85.0,78.0,29.76,SSW,194,0.0,-999.0,79,-99.99,,,-99.99,,2013-08-31 22:13:00,
2013-08-31 17:23:00,85.0,78.0,29.76,SSW,194,0.0,-999.0,80,-99.99,,,-99.99,,2013-08-31 22:23:00,
2013-08-31 17:43:00,85.0,78.0,29.75,SSW,194,0.0,-999.0,80,-99.99,,,-99.99,,2013-08-31 22:43:00,
2013-08-31 17:53:00,85.0,78.0,29.75,SSW,194,0.0,-999.0,79,-99.99,,,-99.99,,2013-08-31 22:53:00,
2013-08-31 18:22:00,87.0,78.0,29.75,SSW,194,0.0,-999.0,74,-99.99,,,-99.99,,2013-08-31 23:22:00,
2013-08-31 18:52:00,87.0,78.0,29.73,SSW,194,0.0,-999.0,75,-99.99,,,-99.99,,2013-08-31 23:52:00,
2013-08-31 19:11:00,86.0,78.0,29.73,SSW,194,0.0,-999.0,76,-99.99,,,-99.99,,2013-09-01 00:11:00,
2013-08-31 19:22:00,86.0,78.0,29.73,SSW,194,0.0,-999.0,76,-99.99,,,-99.99,,2013-09-01 00:22:00,
2013-08-31 19:32:00,86.0,78.0,29.73,SSW,194,0.0,-999.0,76,-99.99,,,-99.99,,2013-09-01 00:32:00,
2013-08-31 19:42:00,86.0,78.0,29.73,SSW,194,0.0,-999.0,76,-99.99,,,-99.99,,2013-09-01 00:42:00,
2013-08-31 22:54:00,73.0,71.0,29.76,SSW,194,0.0,-999.0,93,-99.99,,,-99.99,,2013-09-01 03:54:00,
2013-08-31 23:03:00,-999.0,-99.9,29.77,SSW,194,0.0,-999.0,-999,-99.99,,,-99.99,,2013-09-01 04:03:00,
2013-08-31 23:14:00,74.0,72.0,29.77,SSW,194,0.0,-999.0,93,-99.99,,,-99.99,,2013-09-01 04:14:00,
2013-08-31 23:25:00,73.0,71.0,29.77,SSW,194,0.0,-999.0,94,-99.99,,,-99.99,,2013-09-01 04:25:00,
2013-08-31 23:54:00,72.0,70.0,29.76,SSW,194,0.0,-999.0,94,-99.99,,,-99.99,,2013-09-01 04:54:00,